createdAt,value
2022-08-26T00:00:41.799Z,101146.34
2022-08-26T00:03:07.063Z,101141.81
2022-08-26T00:05:31.197Z,101145.78
2022-08-26T00:07:55.318Z,101141.09
2022-08-26T00:10:19.760Z,101134.75
2022-08-26T00:12:46.171Z,101140.69
2022-08-26T00:15:13.727Z,101134.19
2022-08-26T00:17:37.691Z,101134.38
2022-08-26T00:20:07.363Z,101131.19
2022-08-26T00:22:31.248Z,101136.19
2022-08-26T00:24:54.877Z,101125.91
2022-08-26T00:27:18.687Z,101128.81
2022-08-26T00:29:44.531Z,101126.56
2022-08-26T00:32:08.884Z,101123.19
2022-08-26T00:34:35.772Z,101122.78
2022-08-26T00:37:00.858Z,101117.72
2022-08-26T00:39:24.553Z,101117.97
2022-08-26T00:41:48.892Z,101122.88
2022-08-26T00:44:12.751Z,101125.25
2022-08-26T00:46:46.578Z,101123.97
2022-08-26T00:49:17.291Z,101124.41
2022-08-26T00:51:50.964Z,101114.69
2022-08-26T00:54:18.776Z,101119.78
2022-08-26T00:56:48.622Z,101118.75
2022-08-26T00:59:14.811Z,101120.19
2022-08-26T01:02:02.808Z,101120.81
2022-08-26T01:04:26.832Z,101125.25
2022-08-26T01:06:53.988Z,101112.81
2022-08-26T01:09:20.883Z,101115.91
2022-08-26T01:11:46.172Z,101118.19
2022-08-26T01:14:11.803Z,101122.50
2022-08-26T01:16:36.351Z,101117.72
2022-08-26T01:19:09.222Z,101108.63
2022-08-26T01:21:40.685Z,101118.47
2022-08-26T01:24:08.335Z,101112.81
2022-08-26T01:26:39.510Z,101110.66
2022-08-26T01:29:07.776Z,101112.50
2022-08-26T01:31:44.098Z,101120.16
2022-08-26T01:34:13.555Z,101115.34
2022-08-26T01:36:39.310Z,101115.81
2022-08-26T01:39:03.312Z,101113.19
2022-08-26T01:41:31.592Z,101108.63
2022-08-26T01:43:57.981Z,101107.66
2022-08-26T01:46:23.788Z,101106.56
2022-08-26T01:48:48.990Z,101110.84
2022-08-26T01:51:20.262Z,101105.28
2022-08-26T01:53:46.020Z,101106.56
2022-08-26T01:56:12.191Z,101103.22
2022-08-26T01:58:43.376Z,101099.72
2022-08-26T02:01:08.122Z,101098.66
2022-08-26T02:03:34.221Z,101098.25
2022-08-26T02:06:06.367Z,101093.88
2022-08-26T02:08:40.475Z,101103.31
2022-08-26T02:11:04.439Z,101102.19
2022-08-26T02:13:30.410Z,101090.38
2022-08-26T02:15:56.507Z,101100.00
2022-08-26T02:18:20.660Z,101086.91
2022-08-26T02:20:46.668Z,101092.09
2022-08-26T02:23:15.379Z,101090.31
2022-08-26T02:25:47.331Z,101094.34
2022-08-26T02:28:11.956Z,101083.50
2022-08-26T02:30:35.985Z,101080.94
2022-08-26T02:33:03.649Z,101081.97
2022-08-26T02:35:28.408Z,101085.94
2022-08-26T02:37:54.656Z,101079.91
2022-08-26T02:40:21.969Z,101075.38
2022-08-26T02:42:46.163Z,101080.66
2022-08-26T02:45:11.812Z,101078.56
2022-08-26T02:47:35.970Z,101084.63
2022-08-26T02:50:01.895Z,101085.94
2022-08-26T02:52:25.779Z,101081.44
2022-08-26T02:54:49.459Z,101080.47
2022-08-26T02:57:14.119Z,101083.97
2022-08-26T02:59:39.308Z,101076.16
2022-08-26T03:02:03.231Z,101082.19
2022-08-26T03:04:26.989Z,101085.69
2022-08-26T03:06:52.904Z,101075.09
2022-08-26T03:09:18.627Z,101076.63
2022-08-26T03:11:42.760Z,101077.69
2022-08-26T03:14:07.756Z,101085.97
2022-08-26T03:16:34.587Z,101075.97
2022-08-26T03:18:58.268Z,101075.31
2022-08-26T03:21:22.944Z,101078.81
2022-08-26T03:23:48.217Z,101066.84
2022-08-26T03:26:14.977Z,101064.66
2022-08-26T03:29:01.101Z,101067.59
2022-08-26T03:31:24.952Z,101069.00
2022-08-26T03:33:48.780Z,101068.78
2022-08-26T03:36:13.272Z,101069.66
2022-08-26T03:38:38.179Z,101060.13
2022-08-26T03:41:04.246Z,101064.19
2022-08-26T03:43:30.599Z,101059.41
2022-08-26T03:45:54.278Z,101055.91
2022-08-26T03:48:18.408Z,101060.59
2022-08-26T03:50:43.559Z,101063.06
2022-08-26T03:53:07.411Z,101058.16
2022-08-26T03:55:34.900Z,101060.13
2022-08-26T03:58:00.890Z,101061.47
2022-08-26T04:00:24.766Z,101059.28
2022-08-26T04:02:53.160Z,101052.22
2022-08-26T04:05:21.723Z,101053.25
2022-08-26T04:07:46.965Z,101049.59
2022-08-26T04:10:14.015Z,101043.56
2022-08-26T04:12:39.908Z,101046.38
2022-08-26T04:15:07.044Z,101046.94
2022-08-26T04:17:30.708Z,101046.47
2022-08-26T04:19:55.213Z,101046.94
2022-08-26T04:22:24.151Z,101038.19
2022-08-26T04:24:48.718Z,101044.31
2022-08-26T04:27:14.055Z,101047.31
2022-08-26T04:29:41.644Z,101044.31
2022-08-26T04:32:07.061Z,101036.59
2022-08-26T04:34:32.446Z,101036.50
2022-08-26T04:36:57.886Z,101036.19
2022-08-26T04:39:21.704Z,101043.63
2022-08-26T04:41:46.884Z,101041.31
2022-08-26T04:44:10.624Z,101047.25
2022-08-26T04:46:34.697Z,101046.38
2022-08-26T04:49:00.408Z,101036.78
2022-08-26T04:51:28.091Z,101040.91
2022-08-26T04:53:51.964Z,101046.66
2022-08-26T04:56:16.656Z,101051.66
2022-08-26T04:58:41.338Z,101046.94
2022-08-26T05:01:05.644Z,101050.91
2022-08-26T05:03:30.462Z,101055.13
2022-08-26T05:05:56.528Z,101064.47
2022-08-26T05:08:22.871Z,101061.28
2022-08-26T05:10:50.226Z,101059.47
2022-08-26T05:13:15.751Z,101057.97
2022-08-26T05:15:39.532Z,101051.84
2022-08-26T05:18:04.079Z,101053.50
2022-08-26T05:20:27.964Z,101054.38
2022-08-26T05:22:53.131Z,101052.19
2022-08-26T05:25:18.497Z,101056.53
2022-08-26T05:27:42.600Z,101054.81
2022-08-26T05:30:07.571Z,101067.09
2022-08-26T05:32:31.946Z,101066.88
2022-08-26T05:34:57.155Z,101064.22
2022-08-26T05:37:22.627Z,101070.34
2022-08-26T05:39:51.179Z,101065.31
2022-08-26T05:42:15.463Z,101068.81
2022-08-26T05:44:53.777Z,101066.78
2022-08-26T05:47:19.643Z,101056.16
2022-08-26T05:49:49.263Z,101069.41
2022-08-26T05:52:15.505Z,101061.56
2022-08-26T05:54:40.920Z,101055.91
2022-08-26T05:57:06.392Z,101054.34
2022-08-26T05:59:30.082Z,101057.13
2022-08-26T06:01:56.260Z,101061.50
2022-08-26T06:04:20.515Z,101055.59
2022-08-26T06:06:45.073Z,101047.88
2022-08-26T06:09:11.089Z,101052.88
2022-08-26T06:11:35.412Z,101052.28
2022-08-26T06:14:04.595Z,101061.31
2022-08-26T06:16:28.348Z,101056.66
2022-08-26T06:18:53.322Z,101055.91
2022-08-26T06:21:21.224Z,101058.34
2022-08-26T06:24:03.287Z,101056.91
2022-08-26T06:26:27.507Z,101054.41
2022-08-26T06:28:51.216Z,101057.38
2022-08-26T06:31:17.587Z,101058.78
2022-08-26T06:33:41.427Z,101048.28
2022-08-26T06:36:06.653Z,101051.78
2022-08-26T06:38:30.523Z,101049.28
2022-08-26T06:40:59.625Z,101049.13
2022-08-26T06:43:28.366Z,101050.47
2022-08-26T06:45:52.901Z,101051.63
2022-08-26T06:48:21.989Z,101051.09
2022-08-26T06:50:45.966Z,101058.28
2022-08-26T06:53:09.959Z,101048.44
2022-08-26T06:55:33.644Z,101055.13
2022-08-26T06:57:58.391Z,101044.56
2022-08-26T07:00:22.628Z,101048.19
2022-08-26T07:02:47.110Z,101041.53
2022-08-26T07:05:13.242Z,101043.38
2022-08-26T07:07:37.202Z,101045.78
2022-08-26T07:10:01.635Z,101041.53
2022-08-26T07:12:25.852Z,101035.84
2022-08-26T07:14:49.719Z,101038.72
2022-08-26T07:17:14.345Z,101035.25
2022-08-26T07:19:38.499Z,101028.34
2022-08-26T07:22:07.407Z,101029.22
2022-08-26T07:24:33.707Z,101034.41
2022-08-26T07:27:01.937Z,101029.72
2022-08-26T07:29:26.531Z,101027.84
2022-08-26T07:31:50.637Z,101034.19
2022-08-26T07:34:14.644Z,101022.34
2022-08-26T07:36:38.317Z,101030.38
2022-08-26T07:39:03.508Z,101029.06
2022-08-26T07:41:27.536Z,101021.19
2022-08-26T07:43:52.070Z,101020.94
2022-08-26T07:46:20.746Z,101027.91
2022-08-26T07:48:52.043Z,101021.81
2022-08-26T07:51:17.518Z,101022.53
2022-08-26T07:53:41.250Z,101019.84
2022-08-26T07:56:06.491Z,101018.03
2022-08-26T07:58:30.829Z,101019.38
2022-08-26T08:00:54.472Z,101015.72
2022-08-26T08:03:18.179Z,101012.00
2022-08-26T08:05:42.176Z,101011.63
2022-08-26T08:08:21.873Z,101014.34
2022-08-26T08:10:51.277Z,101018.53
2022-08-26T08:13:16.832Z,101008.22
2022-08-26T08:15:42.687Z,101012.44
2022-08-26T08:18:07.644Z,101010.84
2022-08-26T08:20:42.279Z,101005.38
2022-08-26T08:23:08.660Z,101007.78
2022-08-26T08:25:34.448Z,101007.69
2022-08-26T08:27:58.388Z,101008.97
2022-08-26T08:30:24.533Z,101005.72
2022-08-26T08:32:48.780Z,101010.06
2022-08-26T08:35:15.579Z,101007.41
2022-08-26T08:37:39.363Z,100998.66
2022-08-26T08:40:03.444Z,101004.03
2022-08-26T08:42:45.649Z,100995.03
2022-08-26T08:45:15.425Z,100990.09
2022-08-26T08:47:48.828Z,100986.25
2022-08-26T08:50:24.815Z,100990.66
2022-08-26T08:52:58.974Z,100987.31
2022-08-26T08:55:24.117Z,100986.81
2022-08-26T08:58:02.551Z,100988.06
2022-08-26T09:00:30.120Z,100983.47
2022-08-26T09:03:03.166Z,100982.59
2022-08-26T09:05:31.960Z,100972.94
2022-08-26T09:08:03.075Z,100972.06
2022-08-26T09:10:36.738Z,100977.69
2022-08-26T09:13:02.667Z,100967.31
2022-08-26T09:15:33.210Z,100975.19
2022-08-26T09:18:11.233Z,100975.13
2022-08-26T09:20:45.661Z,100968.63
2022-08-26T09:23:11.320Z,100969.13
2022-08-26T09:25:35.517Z,100967.59
2022-08-26T09:28:03.964Z,100974.63
2022-08-26T09:30:33.057Z,100971.84
2022-08-26T09:33:10.218Z,100961.00
2022-08-26T09:35:38.111Z,100967.28
2022-08-26T09:38:02.423Z,100971.78
2022-08-26T09:40:34.820Z,100965.53
2022-08-26T09:43:15.791Z,100961.72
2022-08-26T09:45:41.861Z,100958.91
2022-08-26T09:48:28.959Z,100960.09
2022-08-26T09:50:57.179Z,100950.84
2022-08-26T09:53:25.173Z,100954.72
2022-08-26T09:56:13.337Z,100946.19
2022-08-26T09:58:40.135Z,100928.91
2022-08-26T10:01:09.077Z,100936.41
2022-08-26T10:03:38.052Z,100922.97
2022-08-26T10:06:04.776Z,100917.66
2022-08-26T10:08:32.328Z,100916.25
2022-08-26T10:10:57.939Z,100911.41
2022-08-26T10:13:31.288Z,100902.97
2022-08-26T10:16:03.171Z,100892.31
2022-08-26T10:18:35.027Z,100893.78
2022-08-26T10:21:07.293Z,100891.41
2022-08-26T10:23:37.960Z,100884.13
2022-08-26T10:26:07.200Z,100877.34
2022-08-26T10:28:38.799Z,100873.94
2022-08-26T10:31:08.683Z,100872.47
2022-08-26T10:33:32.512Z,100874.78
2022-08-26T10:36:00.118Z,100870.97
2022-08-26T10:38:32.527Z,100865.09
2022-08-26T10:41:09.886Z,100857.28
2022-08-26T10:43:41.418Z,100854.66
2022-08-26T10:46:10.255Z,100854.47
2022-08-26T10:48:47.824Z,100846.03
2022-08-26T10:51:15.971Z,100826.69
2022-08-26T10:53:52.067Z,100835.06
2022-08-26T10:56:30.192Z,100828.91
2022-08-26T10:59:10.282Z,100822.56
2022-08-26T11:01:43.488Z,100824.06
2022-08-26T11:04:22.510Z,100818.16
2022-08-26T11:06:47.870Z,100809.69
2022-08-26T11:09:11.640Z,100815.13
2022-08-26T11:11:49.371Z,100810.81
2022-08-26T11:14:53.590Z,100814.13
2022-08-26T11:18:02.772Z,100815.47
2022-08-26T11:20:37.255Z,100817.63
2022-08-26T11:23:50.558Z,100809.41
2022-08-26T11:26:30.012Z,100797.47
2022-08-26T11:29:01.410Z,100779.66
2022-08-26T11:31:59.112Z,100774.81
2022-08-26T11:34:57.872Z,100787.28
2022-08-26T11:37:30.963Z,100794.13
2022-08-26T11:39:57.992Z,100794.75
2022-08-26T11:42:32.566Z,100799.22
2022-08-26T11:44:58.178Z,100805.06
2022-08-26T11:47:29.807Z,100814.56
2022-08-26T11:50:09.985Z,100815.16
2022-08-26T11:52:33.887Z,100800.31
2022-08-26T11:55:10.220Z,100830.03
2022-08-26T11:57:37.540Z,100853.94
2022-08-26T12:00:02.125Z,100869.75
2022-08-26T12:02:29.651Z,100883.28
2022-08-26T12:04:55.080Z,100902.28
2022-08-26T12:07:24.466Z,100920.75
2022-08-26T12:09:58.091Z,100917.66
2022-08-26T12:12:34.774Z,100912.78
2022-08-26T12:15:14.075Z,100878.19
2022-08-26T12:17:38.754Z,100867.06
2022-08-26T12:20:02.362Z,100849.72
2022-08-26T12:22:29.191Z,100858.63
2022-08-26T12:24:56.945Z,100863.25
2022-08-26T12:27:26.535Z,100862.13
2022-08-26T12:30:12.438Z,100887.19
2022-08-26T12:32:58.020Z,100887.78
2022-08-26T12:35:23.038Z,100902.41
2022-08-26T12:37:50.112Z,100917.50
2022-08-26T12:40:35.502Z,100923.16
2022-08-26T12:43:02.090Z,100925.28
2022-08-26T12:45:30.493Z,100935.16
2022-08-26T12:47:58.665Z,100933.47
2022-08-26T12:50:26.151Z,100936.31
2022-08-26T12:52:59.752Z,100931.66
2022-08-26T12:55:27.888Z,100937.72
2022-08-26T12:58:13.000Z,100935.34
2022-08-26T13:00:40.662Z,100926.09
2022-08-26T13:03:05.159Z,100927.59
2022-08-26T13:05:33.088Z,100919.94
2022-08-26T13:08:16.245Z,100905.19
2022-08-26T13:10:43.495Z,100898.28
2022-08-26T13:13:07.512Z,100890.53
2022-08-26T13:15:32.908Z,100898.94
2022-08-26T13:17:58.236Z,100911.53
2022-08-26T13:20:22.743Z,100916.81
2022-08-26T13:22:46.505Z,100926.50
2022-08-26T13:25:19.638Z,100929.47
2022-08-26T13:27:43.814Z,100925.88
2022-08-26T13:30:08.643Z,100915.78
2022-08-26T13:32:33.739Z,100913.00
2022-08-26T13:34:58.850Z,100916.34
2022-08-26T13:37:24.338Z,100920.41
2022-08-26T13:39:59.092Z,100929.03
2022-08-26T13:42:22.990Z,100922.59
2022-08-26T13:44:49.680Z,100929.88
2022-08-26T13:47:13.254Z,100920.56
2022-08-26T13:49:38.657Z,100911.50
2022-08-26T13:52:03.745Z,100911.56
2022-08-26T13:54:27.440Z,100894.41
2022-08-26T13:56:51.723Z,100890.44
2022-08-26T13:59:16.284Z,100897.47
2022-08-26T14:01:40.221Z,100883.78
2022-08-26T14:04:04.677Z,100876.53
2022-08-26T14:06:30.038Z,100871.84
2022-08-26T14:08:53.842Z,100872.50
2022-08-26T14:11:17.779Z,100871.16
2022-08-26T14:13:41.552Z,100865.00
2022-08-26T14:16:10.393Z,100855.97
2022-08-26T14:18:42.139Z,100854.03
2022-08-26T14:21:08.554Z,100851.94
2022-08-26T14:23:33.619Z,100849.88
2022-08-26T14:25:57.212Z,100850.59
2022-08-26T14:28:20.978Z,100866.06
2022-08-26T14:30:49.556Z,100862.75
2022-08-26T14:33:16.684Z,100865.50
2022-08-26T14:35:40.554Z,100867.88
2022-08-26T14:38:12.224Z,100882.06
2022-08-26T14:40:40.167Z,100902.69
2022-08-26T14:43:03.949Z,100932.00
2022-08-26T14:45:29.633Z,100936.97
2022-08-26T14:47:56.621Z,100917.69
2022-08-26T14:50:24.104Z,100873.81
2022-08-26T14:53:05.071Z,100869.00
2022-08-26T14:55:29.936Z,100844.63
2022-08-26T14:57:55.147Z,100825.34
2022-08-26T15:00:19.796Z,100806.75
2022-08-26T15:02:44.473Z,100792.22
2022-08-26T15:05:10.844Z,100793.84
2022-08-26T15:07:34.668Z,100800.38
2022-08-26T15:09:58.483Z,100811.16
2022-08-26T15:12:22.724Z,100821.56
2022-08-26T15:14:47.759Z,100821.94
2022-08-26T15:17:11.450Z,100837.19
2022-08-26T15:19:35.169Z,100841.03
2022-08-26T15:21:58.869Z,100838.84
2022-08-26T15:24:26.427Z,100828.97
2022-08-26T15:26:50.641Z,100813.22
2022-08-26T15:29:14.353Z,100800.84
2022-08-26T15:31:40.466Z,100790.72
2022-08-26T15:34:07.509Z,100770.25
2022-08-26T15:36:33.133Z,100758.81
2022-08-26T15:38:58.532Z,100751.78
2022-08-26T15:41:22.895Z,100734.41
2022-08-26T15:43:46.710Z,100726.38
2022-08-26T15:46:13.647Z,100721.03
2022-08-26T15:48:38.910Z,100717.84
2022-08-26T15:51:04.370Z,100731.66
2022-08-26T15:53:30.136Z,100742.25
2022-08-26T15:55:56.351Z,100743.75
2022-08-26T15:58:20.698Z,100739.50
2022-08-26T16:00:44.923Z,100740.13
2022-08-26T16:03:09.456Z,100750.31
2022-08-26T16:05:34.756Z,100748.84
2022-08-26T16:07:58.708Z,100734.88
2022-08-26T16:10:22.583Z,100734.38
2022-08-26T16:12:46.719Z,100730.38
2022-08-26T16:15:12.211Z,100718.13
2022-08-26T16:17:35.844Z,100723.94
2022-08-26T16:19:59.827Z,100709.72
2022-08-26T16:22:24.963Z,100711.19
2022-08-26T16:24:52.211Z,100730.50
2022-08-26T16:27:15.904Z,100722.94
2022-08-26T16:29:40.387Z,100722.06
2022-08-26T16:32:08.719Z,100718.91
2022-08-26T16:34:32.463Z,100727.53
2022-08-26T16:36:56.123Z,100726.97
2022-08-26T16:39:21.228Z,100731.22
2022-08-26T16:41:45.118Z,100725.34
2022-08-26T16:44:11.470Z,100721.38
2022-08-26T16:46:36.301Z,100726.50
2022-08-26T16:49:03.579Z,100737.50
2022-08-26T16:51:29.575Z,100738.34
2022-08-26T16:53:54.747Z,100746.00
2022-08-26T16:56:23.351Z,100743.53
2022-08-26T16:58:57.608Z,100748.34
2022-08-26T17:01:21.934Z,100755.75
2022-08-26T17:03:46.037Z,100747.09
2022-08-26T17:06:11.105Z,100747.31
2022-08-26T17:08:34.806Z,100742.22
2022-08-26T17:11:00.127Z,100760.94
2022-08-26T17:13:35.914Z,100765.81
2022-08-26T17:16:00.095Z,100761.56
2022-08-26T17:18:30.409Z,100761.09
2022-08-26T17:20:54.571Z,100759.06
2022-08-26T17:23:19.046Z,100761.63
2022-08-26T17:25:43.158Z,100753.44
2022-08-26T17:28:12.695Z,100757.59
2022-08-26T17:30:38.962Z,100755.94
2022-08-26T17:33:10.980Z,100767.34
2022-08-26T17:35:35.298Z,100773.38
2022-08-26T17:37:59.827Z,100772.72
2022-08-26T17:40:27.013Z,100769.41
2022-08-26T17:42:50.843Z,100764.22
2022-08-26T17:45:14.640Z,100760.94
2022-08-26T17:47:41.086Z,100770.84
2022-08-26T17:50:07.327Z,100769.03
2022-08-26T17:52:31.624Z,100765.03
2022-08-26T17:54:56.726Z,100759.44
2022-08-26T17:57:20.449Z,100762.63
2022-08-26T17:59:44.795Z,100754.81
2022-08-26T18:02:09.922Z,100758.75
2022-08-26T18:04:34.991Z,100758.53
2022-08-26T18:06:58.647Z,100756.00
2022-08-26T18:09:22.426Z,100767.22
2022-08-26T18:11:46.131Z,100762.19
2022-08-26T18:14:09.823Z,100768.69
2022-08-26T18:16:38.355Z,100756.91
2022-08-26T18:19:02.421Z,100755.47
2022-08-26T18:21:28.865Z,100760.28
2022-08-26T18:23:53.408Z,100750.31
2022-08-26T18:26:19.494Z,100754.81
2022-08-26T18:28:43.131Z,100751.69
2022-08-26T18:31:09.755Z,100745.13
2022-08-26T18:33:33.478Z,100745.13
2022-08-26T18:35:57.142Z,100740.47
2022-08-26T18:38:22.450Z,100740.69
2022-08-26T18:40:46.964Z,100739.00
2022-08-26T18:43:11.497Z,100746.75
2022-08-26T18:45:35.638Z,100744.69
2022-08-26T18:47:59.423Z,100735.44
2022-08-26T18:52:46.696Z,100726.53
2022-08-26T18:55:12.066Z,100723.84
2022-08-26T18:57:36.120Z,100720.88
2022-08-26T18:59:59.770Z,100714.97
2022-08-26T19:02:24.474Z,100714.56
2022-08-26T19:07:11.994Z,100724.81
2022-08-26T19:09:36.668Z,100723.59
2022-08-26T19:12:02.732Z,100730.72
2022-08-26T19:14:26.690Z,100735.75
2022-08-26T19:16:52.493Z,100741.16
2022-08-26T19:19:17.335Z,100749.81
2022-08-26T19:21:41.703Z,100756.31
2022-08-26T19:24:15.232Z,100762.16
2022-08-26T19:26:39.683Z,100768.97
2022-08-26T19:29:05.375Z,100780.13
2022-08-26T19:31:29.356Z,100784.53
2022-08-26T19:33:53.091Z,100790.63
2022-08-26T19:36:21.764Z,100796.75
2022-08-26T19:38:46.353Z,100800.97
2022-08-26T19:41:13.908Z,100800.09
2022-08-26T19:43:37.663Z,100795.84
2022-08-26T19:46:03.007Z,100802.59
2022-08-26T19:48:26.677Z,100802.81
2022-08-26T19:50:50.484Z,100801.75
2022-08-26T19:53:15.397Z,100799.66
2022-08-26T19:55:39.151Z,100805.97
2022-08-26T19:58:02.851Z,100797.31
2022-08-26T20:00:29.424Z,100802.75
2022-08-26T20:02:55.603Z,100805.09
2022-08-26T20:05:22.591Z,100796.09
2022-08-26T20:07:46.235Z,100795.44
2022-08-26T20:10:13.680Z,100798.19
2022-08-26T20:12:37.516Z,100795.06
2022-08-26T20:15:02.127Z,100798.63
2022-08-26T20:17:25.782Z,100793.38
2022-08-26T20:20:08.191Z,100794.94
2022-08-26T20:22:51.836Z,100788.03
2022-08-26T20:25:16.063Z,100784.03
2022-08-26T20:27:39.806Z,100789.13
2022-08-26T20:30:03.647Z,100791.25
2022-08-26T20:32:27.535Z,100784.03
2022-08-26T20:34:53.671Z,100794.94
2022-08-26T20:37:17.907Z,100796.63
2022-08-26T20:39:45.066Z,100802.09
2022-08-26T20:42:19.906Z,100801.03
2022-08-26T20:44:54.714Z,100807.16
2022-08-26T20:47:19.270Z,100808.81
2022-08-26T20:49:43.774Z,100807.16
2022-08-26T20:52:08.880Z,100813.44
2022-08-26T20:54:32.574Z,100815.56
2022-08-26T20:56:57.243Z,100812.44
2022-08-26T20:59:21.618Z,100816.81
2022-08-26T21:01:45.991Z,100821.84
2022-08-26T21:04:13.891Z,100822.75
2022-08-26T21:06:38.277Z,100827.34
2022-08-26T21:09:04.984Z,100833.88
2022-08-26T21:11:29.216Z,100840.69
2022-08-26T21:14:16.230Z,100832.78
2022-08-26T21:16:37.299Z,100831.38
2022-08-26T21:19:01.004Z,100826.91
2022-08-26T21:21:27.440Z,100828.38
2022-08-26T21:23:51.086Z,100827.75
2022-08-26T21:26:18.483Z,100815.56
2022-08-26T21:28:44.504Z,100812.25
2022-08-26T21:31:11.859Z,100807.41
2022-08-26T21:33:36.094Z,100798.16
2022-08-26T21:35:59.828Z,100792.91
2022-08-26T21:38:23.785Z,100788.91
2022-08-26T21:40:57.295Z,100793.88
2022-08-26T21:43:25.978Z,100802.50
2022-08-26T21:45:59.565Z,100796.69
2022-08-26T21:48:24.639Z,100801.09
2022-08-26T21:50:57.327Z,100800.25
2022-08-26T21:53:21.250Z,100805.03
2022-08-26T21:55:45.574Z,100799.25
2022-08-26T21:58:09.525Z,100801.59
2022-08-26T22:00:34.751Z,100806.75
2022-08-26T22:03:00.809Z,100790.63
2022-08-26T22:05:24.593Z,100797.69
2022-08-26T22:07:48.240Z,100798.25
2022-08-26T22:10:12.360Z,100798.91
2022-08-26T22:12:36.204Z,100804.81
2022-08-26T22:14:59.903Z,100796.53
2022-08-26T22:17:24.880Z,100803.56
2022-08-26T22:19:48.520Z,100804.22
2022-08-26T22:22:13.120Z,100801.47
2022-08-26T22:24:37.268Z,100805.72
2022-08-26T22:27:00.933Z,100806.63
2022-08-26T22:29:25.650Z,100801.94
2022-08-26T22:31:49.290Z,100807.75
2022-08-26T22:34:17.459Z,100801.25
2022-08-26T22:36:47.329Z,100794.47
2022-08-26T22:39:11.415Z,100785.34
2022-08-26T22:41:35.321Z,100787.28
2022-08-26T22:43:59.038Z,100779.59
2022-08-26T22:46:26.058Z,100773.25
2022-08-26T22:48:53.870Z,100771.53
2022-08-26T22:51:19.279Z,100763.13
2022-08-26T22:53:43.036Z,100761.78
2022-08-26T22:56:07.275Z,100763.06
2022-08-26T22:58:31.187Z,100757.66
2022-08-26T23:00:54.905Z,100750.50
2022-08-26T23:03:21.278Z,100740.81
2022-08-26T23:05:48.644Z,100736.13
2022-08-26T23:08:16.942Z,100730.13
2022-08-26T23:10:43.322Z,100730.56
2022-08-26T23:13:08.205Z,100724.13
2022-08-26T23:15:32.063Z,100717.66
2022-08-26T23:17:58.464Z,100712.06
2022-08-26T23:20:22.762Z,100702.06
2022-08-26T23:22:46.496Z,100701.28
2022-08-26T23:25:13.666Z,100693.94
2022-08-26T23:27:39.104Z,100694.59
2022-08-26T23:30:02.830Z,100708.53
2022-08-26T23:32:26.554Z,100730.47
2022-08-26T23:34:58.996Z,100733.56
2022-08-26T23:37:23.845Z,100738.31
2022-08-26T23:39:51.155Z,100743.28
2022-08-26T23:42:16.254Z,100753.47
2022-08-26T23:44:40.135Z,100749.28
2022-08-26T23:47:04.865Z,100739.00
2022-08-26T23:49:29.166Z,100741.16
2022-08-26T23:52:11.063Z,100737.75
2022-08-26T23:54:35.136Z,100737.19
2022-08-26T23:56:58.800Z,100737.38
2022-08-26T23:59:23.855Z,100742.50
